Virtual Cathay Airport Information Service

Taiwan Taoyuan International Airport

ICAO: RCTP Country: Taiwan
Latitude: 25.0777 Longitude: 121.233
Latest Arrival : HDA486 (VHHH-RCTP) Latest Departure : HDA485 (RCTP-VHHH)


WX CaptureLIVE
Data provided by noaa.gov | Fetched at 17:52:23

METAR : RCTP 200930Z 09022G32KT 9999 FEW015 25/15 Q1011 WS R05L NOSIG RMK A2987

TAF : RCTP 200500Z 2006/2112 09018KT 9999 FEW015 TEMPO 2017/2023 10013KT TEMPO 2101/2107 10023KT


Runway Data for RCTP
Data provided by openaviationdata.com

Runway ID Mag Var Hdg Length Elevation Surface ILS Freq ILS Id ILS Slope
5 -3 52° 12020 ft 107 ft Concrete 111.1 ITIA 3
6 -3 52° 11001 ft 107 ft Concrete 110.7 ICKS 3
23 -3 232° 12020 ft 107 ft Concrete 109.3 ITYA 3
24 -3 232° 11001 ft 107 ft Concrete 111.9 ICJN 3

Taiwan Taoyuan International Airport, Taiwan
Use only for reference purposes



Not for navigational purposes.